createdAt,value
2023-03-20T00:02:19.613Z,37.95
2023-03-20T00:07:21.301Z,33.83
2023-03-20T00:12:22.481Z,35.55
2023-03-20T00:17:20.709Z,34.50
2023-03-20T00:22:17.211Z,37.15
2023-03-20T00:27:14.957Z,37.08
2023-03-20T00:32:13.040Z,38.50
2023-03-20T00:37:11.484Z,41.47
2023-03-20T00:42:14.654Z,34.70
2023-03-20T00:47:19.680Z,36.72
2023-03-20T00:52:17.721Z,39.08
2023-03-20T00:57:29.996Z,36.75
2023-03-20T01:02:33.072Z,35.33
2023-03-20T01:07:30.008Z,32.05
2023-03-20T01:12:28.497Z,37.40
2023-03-20T01:17:26.578Z,36.00
2023-03-20T01:22:23.192Z,34.08
2023-03-20T01:27:20.295Z,30.90
2023-03-20T01:32:18.613Z,35.47
2023-03-20T01:37:18.901Z,38.88
2023-03-20T01:42:16.131Z,36.65
2023-03-20T01:47:17.714Z,32.58
2023-03-20T01:52:15.424Z,33.95
2023-03-20T01:57:21.359Z,35.42
2023-03-20T02:08:24.037Z,37.65
2023-03-20T02:13:21.210Z,32.30
2023-03-20T02:18:17.741Z,33.35
2023-03-20T02:24:03.700Z,35.17
2023-03-20T02:29:26.574Z,27.92
2023-03-20T02:34:48.532Z,30.42
2023-03-20T02:40:14.700Z,31.20
2023-03-20T02:45:53.945Z,28.30
2023-03-20T02:51:01.089Z,28.17
2023-03-20T02:56:14.440Z,26.50
2023-03-20T03:01:30.012Z,30.10
2023-03-20T03:06:35.854Z,23.30
2023-03-20T03:11:34.627Z,19.60
2023-03-20T03:16:34.186Z,18.50
2023-03-20T03:21:31.358Z,16.45
2023-03-20T03:26:31.525Z,17.92
2023-03-20T03:31:29.691Z,14.35
2023-03-20T03:37:09.903Z,15.20
2023-03-20T03:42:25.961Z,14.95
2023-03-20T03:47:54.937Z,13.10
2023-03-20T03:52:52.548Z,12.50
2023-03-20T03:58:01.984Z,12.93
2023-03-20T04:02:58.922Z,11.93
2023-03-20T04:08:01.618Z,12.85
2023-03-20T04:12:58.076Z,11.50
2023-03-20T04:17:54.656Z,10.98
2023-03-20T04:22:51.175Z,11.15
2023-03-20T04:27:48.831Z,11.60
2023-03-20T04:37:57.445Z,11.55
2023-03-20T04:42:56.536Z,11.60
2023-03-20T04:47:53.016Z,13.77
2023-03-20T04:52:49.581Z,12.30
2023-03-20T04:57:47.042Z,10.88
2023-03-20T05:02:43.921Z,11.00
2023-03-20T05:07:40.370Z,11.07
2023-03-20T05:12:41.893Z,11.25
2023-03-20T05:17:41.969Z,11.50
2023-03-20T05:50:00.117Z,13.45
2023-03-20T08:31:55.371Z,9.70
2023-03-20T08:36:52.704Z,9.00
2023-03-20T08:55:16.799Z,10.63
2023-03-20T09:13:25.345Z,10.50
2023-03-20T09:19:12.657Z,11.23
2023-03-20T09:37:15.263Z,9.57
2023-03-20T10:08:49.376Z,8.93
2023-03-20T10:21:30.707Z,10.98
2023-03-20T10:27:34.691Z,12.20
2023-03-20T11:06:15.691Z,12.18
2023-03-20T11:28:55.767Z,11.00
2023-03-20T12:00:25.279Z,9.52
2023-03-20T12:05:46.346Z,11.00
2023-03-20T12:18:39.908Z,9.40
2023-03-20T13:46:42.094Z,9.02
2023-03-20T13:47:31.988Z,8.70
2023-03-20T13:59:51.434Z,11.25
2023-03-20T14:19:44.619Z,7.95
2023-03-20T14:47:53.267Z,9.85
2023-03-20T15:11:20.808Z,12.20
2023-03-20T15:30:06.800Z,12.00
2023-03-20T15:35:05.317Z,10.35
2023-03-20T15:40:11.079Z,11.30
2023-03-20T15:45:29.286Z,10.68
2023-03-20T15:50:26.042Z,10.27
2023-03-20T16:00:39.710Z,14.68
2023-03-20T16:05:36.284Z,10.82
2023-03-20T16:17:36.144Z,12.40
2023-03-20T16:46:29.870Z,11.80
2023-03-20T16:58:00.488Z,11.70
2023-03-20T17:04:06.251Z,10.80
2023-03-20T17:09:23.332Z,13.00
2023-03-20T17:14:20.039Z,15.68
2023-03-20T17:31:30.420Z,18.83
2023-03-20T17:36:32.473Z,18.55
2023-03-20T17:41:51.156Z,16.55
2023-03-20T17:46:57.915Z,15.60
2023-03-20T17:52:09.141Z,14.38
2023-03-20T17:57:19.793Z,18.17
2023-03-20T18:03:20.033Z,14.68
2023-03-20T18:08:38.037Z,15.38
2023-03-20T20:50:09.424Z,11.90
2023-03-20T20:55:21.711Z,14.65
2023-03-20T21:00:21.086Z,10.02
2023-03-20T21:05:20.526Z,13.45
2023-03-20T21:10:19.028Z,15.60
2023-03-20T21:15:16.540Z,14.90
2023-03-20T21:20:13.389Z,9.30
2023-03-20T21:30:14.148Z,14.93
2023-03-20T21:35:11.028Z,13.25
2023-03-20T21:40:08.726Z,15.45
2023-03-20T21:50:57.488Z,16.58
2023-03-20T22:12:27.865Z,21.60
2023-03-20T22:23:40.444Z,17.77
2023-03-20T22:28:02.489Z,18.55
2023-03-20T22:38:41.484Z,13.97
2023-03-20T22:48:26.467Z,13.65
2023-03-20T22:53:22.988Z,14.35
2023-03-20T22:58:19.505Z,14.73
2023-03-20T23:03:29.500Z,11.88
2023-03-20T23:08:31.486Z,11.07
2023-03-20T23:13:30.646Z,12.77
2023-03-20T23:18:27.432Z,11.23
2023-03-20T23:28:21.677Z,11.55
2023-03-20T23:33:18.377Z,13.05
2023-03-20T23:38:14.910Z,13.23
2023-03-20T23:43:11.412Z,14.68
2023-03-20T23:48:07.940Z,14.32
2023-03-20T23:53:17.496Z,15.88
2023-03-20T23:58:15.815Z,16.33
